Time;durP1;ratioP1;P1;durP2;ratioP2;P2;SDS_P1;SDS_P2;PMS_P1;PMS_P2;Temp;Humidity;BMP_temperature;BMP_pressure;BME280_temperature;BME280_humidity;BME280_pressure;Samples;Min_cycle;Max_cycle;Signal;HPM_P1;HPM_P2
2022/12/19 00:01:48;;;;;;;47.55;16.40;;;;;;;-6.25;100.00;101031.95;2228934;79;21547;-57
2022/12/19 00:04:48;;;;;;;45.23;16.12;;;;;;;-6.33;100.00;101027.80;2221980;79;21467;-57
2022/12/19 00:07:49;;;;;;;51.53;16.93;;;;;;;-6.51;100.00;101028.28;2226048;79;20989;-57
2022/12/19 00:10:50;;;;;;;50.35;16.80;;;;;;;-6.48;100.00;101023.30;2236990;79;20992;-57
2022/12/19 00:13:50;;;;;;;47.23;16.97;;;;;;;-6.46;100.00;101028.95;2222821;79;20957;-57
2022/12/19 00:16:50;;;;;;;47.70;17.98;;;;;;;-6.39;100.00;101033.03;2214278;79;20949;-58
2022/12/19 00:19:51;;;;;;;51.80;17.17;;;;;;;-6.44;100.00;101034.13;2229997;79;21068;-57
2022/12/19 00:22:51;;;;;;;49.65;17.75;;;;;;;-6.40;100.00;101029.63;2230089;79;21601;-57
2022/12/19 00:25:52;;;;;;;53.42;17.20;;;;;;;-6.38;100.00;101033.10;2223090;79;21542;-58
2022/12/19 00:28:52;;;;;;;50.52;17.73;;;;;;;-6.51;100.00;101034.25;2217599;79;21527;-57
2022/12/19 00:31:53;;;;;;;56.45;18.32;;;;;;;-6.49;100.00;101026.69;2207450;79;21522;-57
2022/12/19 00:34:54;;;;;;;53.05;17.55;;;;;;;-6.51;100.00;101023.17;2214718;79;20988;-57
2022/12/19 00:37:54;;;;;;;56.90;19.80;;;;;;;-6.52;100.00;101029.08;2234184;79;21001;-57
2022/12/19 00:40:55;;;;;;;53.15;17.95;;;;;;;-6.51;100.00;101024.04;2231835;79;20985;-57
2022/12/19 00:43:56;;;;;;;56.23;20.27;;;;;;;-6.43;100.00;101013.31;2230141;79;20991;-58
2022/12/19 00:46:56;;;;;;;61.58;18.95;;;;;;;-6.41;100.00;101021.48;2212503;79;21490;-57
2022/12/19 00:49:56;;;;;;;52.70;18.98;;;;;;;-6.43;100.00;101017.14;2227240;79;20984;-57
2022/12/19 00:52:57;;;;;;;57.45;19.95;;;;;;;-6.50;100.00;101023.23;2205272;79;20968;-57
2022/12/19 00:55:58;;;;;;;57.43;20.35;;;;;;;-6.50;100.00;101020.69;2213422;79;21025;-58
2022/12/19 00:58:58;;;;;;;59.98;19.30;;;;;;;-6.52;100.00;101012.10;2225456;79;21004;-57
2022/12/19 01:01:58;;;;;;;59.18;20.52;;;;;;;-6.52;100.00;101009.92;2233841;79;21044;-58
2022/12/19 01:04:59;;;;;;;55.92;19.95;;;;;;;-6.42;100.00;101000.61;2205500;79;21067;-57
2022/12/19 01:07:59;;;;;;;58.60;19.90;;;;;;;-6.39;100.00;101003.67;2232330;79;21021;-57
2022/12/19 01:11:00;;;;;;;61.85;21.00;;;;;;;-6.46;100.00;100999.59;2227684;79;21585;-57
2022/12/19 01:14:00;;;;;;;60.95;21.57;;;;;;;-6.52;100.00;100993.33;2215233;79;21039;-57
2022/12/19 01:17:01;;;;;;;58.75;21.42;;;;;;;-6.48;100.00;100983.34;2230639;79;20992;-58
2022/12/19 01:20:01;;;;;;;64.53;21.65;;;;;;;-6.37;100.00;100979.08;2221762;79;21070;-58
2022/12/19 01:23:02;;;;;;;59.75;20.50;;;;;;;-6.43;100.00;100973.31;2213999;79;20956;-57
2022/12/19 01:26:02;;;;;;;60.40;21.80;;;;;;;-6.53;100.00;100970.77;2242974;79;20989;-57
2022/12/19 01:29:03;;;;;;;66.47;21.75;;;;;;;-6.51;100.00;100964.03;2214056;79;20989;-57
2022/12/19 01:32:05;;;;;;;65.55;22.98;;;;;;;-6.49;100.00;100956.05;2212634;79;21013;-57
2022/12/19 01:35:06;;;;;;;62.58;20.35;;;;;;;-6.49;100.00;100951.36;2234543;79;21603;-57
2022/12/19 01:38:06;;;;;;;59.63;20.85;;;;;;;-6.53;100.00;100952.03;2230689;79;21495;-57
2022/12/19 01:41:06;;;;;;;64.80;22.35;;;;;;;-6.62;100.00;100952.10;2239790;79;20977;-57
2022/12/19 01:44:07;;;;;;;62.23;20.23;;;;;;;-6.53;100.00;100960.97;2242034;79;21013;-56
2022/12/19 01:47:07;;;;;;;60.08;20.52;;;;;;;-6.52;100.00;100967.41;2247462;79;20988;-58
2022/12/19 01:50:08;;;;;;;61.42;21.23;;;;;;;-6.46;100.00;100959.14;2231037;79;20966;-58
2022/12/19 01:53:08;;;;;;;62.38;20.52;;;;;;;-6.43;100.00;100955.44;2233168;79;21055;-57
2022/12/19 01:56:09;;;;;;;61.75;22.42;;;;;;;-6.43;100.00;100940.11;2242082;79;20989;-57
2022/12/19 01:59:09;;;;;;;59.18;21.15;;;;;;;-6.52;100.00;100930.77;2226929;79;21496;-57
2022/12/19 02:02:10;;;;;;;57.95;19.70;;;;;;;-6.49;100.00;100929.66;2239368;79;21031;-57
2022/12/19 02:05:10;;;;;;;60.85;21.15;;;;;;;-6.58;100.00;100922.45;2220895;79;21001;-58
2022/12/19 02:08:11;;;;;;;57.23;20.20;;;;;;;-6.57;100.00;100916.96;2224817;79;21011;-57
2022/12/19 02:11:11;;;;;;;59.75;20.20;;;;;;;-6.57;100.00;100918.23;2237359;79;21016;-57
2022/12/19 02:14:12;;;;;;;58.78;21.30;;;;;;;-6.62;100.00;100903.59;2218169;79;21008;-57
2022/12/19 02:17:12;;;;;;;61.05;21.10;;;;;;;-6.68;100.00;100900.80;2230135;79;21531;-58
2022/12/19 02:20:13;;;;;;;67.40;20.30;;;;;;;-6.74;100.00;100900.52;2229605;79;20992;-57
2022/12/19 02:23:13;;;;;;;56.50;18.80;;;;;;;-6.79;100.00;100900.33;2232786;79;20977;-58
2022/12/19 02:26:13;;;;;;;66.67;20.97;;;;;;;-6.90;100.00;100889.20;2225566;79;20989;-57
2022/12/19 02:29:14;;;;;;;66.72;20.45;;;;;;;-6.90;100.00;100886.65;2236922;79;20986;-57
2022/12/19 02:32:14;;;;;;;60.98;20.57;;;;;;;-6.91;100.00;100897.27;2240994;79;21020;-58
2022/12/19 02:35:15;;;;;;;57.88;19.62;;;;;;;-6.99;100.00;100883.30;2238131;79;20949;-58
2022/12/19 02:38:15;;;;;;;63.13;21.00;;;;;;;-7.09;100.00;100883.30;2234135;79;21444;-57
2022/12/19 02:44:18;;;;;;;66.10;20.97;;;;;;;-7.22;100.00;100884.86;2202593;79;21096;-57
2022/12/19 02:47:18;;;;;;;61.85;19.92;;;;;;;-7.19;100.00;100882.02;2238116;79;20989;-57
2022/12/19 02:50:19;;;;;;;59.88;19.82;;;;;;;-7.22;100.00;100878.48;2229757;79;21047;-57
2022/12/19 02:53:19;;;;;;;57.23;20.52;;;;;;;-7.17;100.00;100863.85;2233765;79;20985;-57
2022/12/19 02:56:20;;;;;;;59.55;19.87;;;;;;;-7.24;100.00;100862.22;2233292;79;21060;-57
2022/12/19 02:59:20;;;;;;;65.65;21.23;;;;;;;-7.31;100.00;100859.41;2229939;79;21076;-57
2022/12/19 03:02:21;;;;;;;58.08;19.73;;;;;;;-7.37;100.00;100851.51;2235771;79;21011;-57
2022/12/19 03:05:21;;;;;;;65.67;19.50;;;;;;;-7.42;100.00;100859.34;2222579;79;21021;-57
2022/12/19 03:08:21;;;;;;;67.55;20.62;;;;;;;-7.41;100.00;100859.82;2228422;79;21075;-57
2022/12/19 03:11:22;;;;;;;56.58;18.57;;;;;;;-7.42;100.00;100850.42;2215704;79;21008;-57
2022/12/19 03:14:22;;;;;;;54.53;18.37;;;;;;;-7.46;100.00;100843.84;2215957;79;21501;-57
2022/12/19 03:17:23;;;;;;;58.98;20.00;;;;;;;-7.48;100.00;100836.14;2238574;79;20985;-57
2022/12/19 03:20:24;;;;;;;55.45;18.80;;;;;;;-7.43;100.00;100839.74;2228786;79;21019;-57
2022/12/19 03:23:24;;;;;;;54.85;19.70;;;;;;;-7.47;100.00;100852.30;2246383;79;20992;-58
2022/12/19 03:26:25;;;;;;;55.63;19.32;;;;;;;-7.59;100.00;100847.11;2210305;79;20999;-57
2022/12/19 03:29:25;;;;;;;56.40;18.87;;;;;;;-7.60;100.00;100855.97;2223543;79;21484;-57
2022/12/19 03:32:26;;;;;;;51.58;18.17;;;;;;;-7.58;100.00;100845.05;2239213;79;21024;-58
2022/12/19 03:35:26;;;;;;;52.98;18.23;;;;;;;-7.59;100.00;100850.94;2214353;79;21085;-57
2022/12/19 03:38:27;;;;;;;58.65;19.25;;;;;;;-7.54;100.00;100844.38;2227119;79;20994;-57
2022/12/19 03:44:29;;;;;;;;;;;;;;;-7.59;100.00;100835.64;2214019;79;21033;-57
2022/12/19 03:47:30;;;;;;;57.98;17.90;;;;;;;-7.64;100.00;100831.14;2240059;79;20106;-58
2022/12/19 03:50:30;;;;;;;55.67;18.57;;;;;;;-7.73;100.00;100831.23;2228817;79;21032;-58
2022/12/19 03:53:31;;;;;;;52.88;18.92;;;;;;;-7.73;100.00;100831.23;2241022;79;21479;-57
2022/12/19 03:56:31;;;;;;;54.73;17.37;;;;;;;-7.75;100.00;100827.72;2205609;80;21561;-57
2022/12/19 03:59:32;;;;;;;55.03;18.75;;;;;;;-7.81;100.00;100825.28;2211396;79;20952;-58
2022/12/19 04:02:33;;;;;;;55.45;18.05;;;;;;;-7.79;100.00;100831.34;2233479;79;21057;-57
2022/12/19 04:05:33;;;;;;;56.40;18.20;;;;;;;-7.83;100.00;100836.69;2239561;79;21053;-57
2022/12/19 04:08:34;;;;;;;55.28;18.73;;;;;;;-7.86;100.00;100833.63;2224555;79;21060;-57
2022/12/19 04:11:35;;;;;;;52.27;18.30;;;;;;;-7.85;100.00;100828.97;2226689;79;21499;-57
2022/12/19 04:14:35;;;;;;;51.90;17.92;;;;;;;-7.97;100.00;100832.25;2231828;79;21673;-58
2022/12/19 04:17:36;;;;;;;55.45;17.95;;;;;;;-8.01;100.00;100826.55;2235949;79;20981;-57
2022/12/19 04:20:37;;;;;;;55.73;20.72;;;;;;;-8.07;100.00;100826.27;2228101;79;21012;-57
2022/12/19 04:23:37;;;;;;;53.30;17.37;;;;;;;-8.10;100.00;100837.18;2237780;79;20986;-58
2022/12/19 04:26:37;;;;;;;60.23;18.65;;;;;;;-8.16;100.00;100842.38;2232630;79;21504;-58
2022/12/19 04:29:38;;;;;;;54.53;18.25;;;;;;;-8.21;100.00;100843.44;2222548;79;21000;-57
2022/12/19 04:32:38;;;;;;;51.95;17.12;;;;;;;-8.20;100.00;100846.47;2227905;79;21069;-58
2022/12/19 04:35:39;;;;;;;50.15;17.62;;;;;;;-8.27;100.00;100840.62;2233428;79;21081;-57
2022/12/19 04:38:39;;;;;;;54.23;16.82;;;;;;;-8.27;100.00;100834.25;2233669;79;21016;-57
2022/12/19 04:41:40;;;;;;;53.42;18.27;;;;;;;-8.23;100.00;100825.55;2220588;79;21000;-57
2022/12/19 04:44:41;;;;;;;54.85;19.02;;;;;;;-8.31;100.00;100823.45;2231864;79;21005;-57
2022/12/19 04:47:41;;;;;;;53.60;18.42;;;;;;;-8.36;100.00;100816.45;2205639;79;21031;-57
2022/12/19 04:50:41;;;;;;;52.27;17.52;;;;;;;-8.32;100.00;100811.51;2222016;79;21042;-57
2022/12/19 04:53:42;;;;;;;53.42;18.52;;;;;;;-8.32;100.00;100808.55;2229674;79;21048;-57
2022/12/19 04:56:42;;;;;;;55.08;17.27;;;;;;;-8.31;100.00;100792.89;2228931;79;20970;-58
2022/12/19 04:59:43;;;;;;;55.85;19.48;;;;;;;-8.37;100.00;100796.89;2238157;79;20953;-57
2022/12/19 05:02:44;;;;;;;52.75;19.25;;;;;;;-8.40;100.00;100786.56;2235956;79;21105;-57
2022/12/19 05:05:45;;;;;;;54.77;18.57;;;;;;;-8.44;100.00;100769.40;2213258;79;20996;-57
2022/12/19 05:08:45;;;;;;;53.05;17.73;;;;;;;-8.52;100.00;100775.83;2211070;79;21032;-57
2022/12/19 05:11:45;;;;;;;54.98;19.00;;;;;;;-8.58;100.00;100781.49;2229869;79;21511;-57
2022/12/19 05:14:46;;;;;;;52.48;18.30;;;;;;;-8.65;100.00;100779.87;2237994;79;21478;-57
2022/12/19 05:17:46;;;;;;;53.50;19.52;;;;;;;-8.63;100.00;100778.25;2232536;79;21021;-58
2022/12/19 05:20:47;;;;;;;54.27;19.07;;;;;;;-8.69;100.00;100777.97;2220039;79;20999;-57
2022/12/19 05:23:48;;;;;;;58.40;19.00;;;;;;;-8.73;100.00;100771.88;2235359;79;20993;-57
2022/12/19 05:26:49;;;;;;;59.18;18.02;;;;;;;-8.77;100.00;100773.80;2236884;79;21016;-57
2022/12/19 05:29:49;;;;;;;55.10;18.90;;;;;;;-8.70;100.00;100772.02;2230751;79;21533;-58
2022/12/19 05:32:50;;;;;;;59.30;19.20;;;;;;;-8.68;100.00;100777.19;2237441;79;20989;-57
2022/12/19 05:35:50;;;;;;;54.95;20.30;;;;;;;-8.77;100.00;100777.20;2225701;79;20993;-57
2022/12/19 05:38:51;;;;;;;53.78;18.40;;;;;;;-8.73;100.00;100784.61;2221515;79;20988;-58
2022/12/19 05:41:51;;;;;;;53.83;18.42;;;;;;;-8.62;100.00;100788.92;2238238;79;21038;-57
2022/12/19 05:44:51;;;;;;;56.13;18.82;;;;;;;-8.64;100.00;100784.17;2228947;79;21502;-58
2022/12/19 05:47:52;;;;;;;53.63;18.23;;;;;;;-8.65;100.00;100787.09;2221538;79;20981;-57
2022/12/19 05:50:52;;;;;;;57.38;20.12;;;;;;;-8.69;100.00;100789.05;2222749;79;20984;-58
2022/12/19 05:53:53;;;;;;;55.88;19.00;;;;;;;-8.73;100.00;100778.24;2220675;79;21001;-58
2022/12/19 05:56:53;;;;;;;56.25;18.42;;;;;;;-8.76;100.00;100776.42;2215154;79;20996;-58
2022/12/19 05:59:54;;;;;;;58.30;18.92;;;;;;;-8.82;100.00;100774.86;2214038;79;20998;-57
2022/12/19 06:02:54;;;;;;;61.00;21.00;;;;;;;-8.86;100.00;100769.52;2226640;79;21005;-57
2022/12/19 06:05:55;;;;;;;53.50;18.65;;;;;;;-8.86;100.00;100774.23;2208115;79;21475;-57
2022/12/19 06:08:56;;;;;;;53.15;18.57;;;;;;;-8.91;100.00;100768.03;2230425;79;20958;-57
2022/12/19 06:11:56;;;;;;;71.90;26.50;;;;;;;-8.92;100.00;100763.73;2225143;79;21000;-58
2022/12/19 06:14:57;;;;;;;55.92;18.90;;;;;;;-8.95;100.00;100762.33;2228795;79;20949;-57
2022/12/19 06:17:57;;;;;;;54.83;18.70;;;;;;;-8.93;100.00;100759.47;2217041;79;20953;-57
2022/12/19 06:20:58;;;;;;;56.08;19.32;;;;;;;-8.92;100.00;100757.38;2216130;79;21479;-57
2022/12/19 06:23:59;;;;;;;59.88;20.50;;;;;;;-8.87;100.00;100752.13;2230315;79;21004;-57
2022/12/19 06:26:59;;;;;;;54.50;19.17;;;;;;;-8.86;100.00;100761.52;2220041;79;20980;-57
2022/12/19 06:29:59;;;;;;;57.78;20.00;;;;;;;-8.94;100.00;100758.98;2231093;79;21008;-57
2022/12/19 06:33:00;;;;;;;56.68;19.45;;;;;;;-8.90;100.00;100748.17;2223189;79;21044;-57
2022/12/19 06:36:00;;;;;;;60.90;18.92;;;;;;;-8.89;100.00;100750.78;2225171;79;21114;-57
2022/12/19 06:39:01;;;;;;;61.90;21.82;;;;;;;-8.83;100.00;100754.41;2233154;79;21103;-57
2022/12/19 06:45:04;;;;;;;;;;;;;;;-8.86;100.00;100770.42;2194569;79;20997;-58
2022/12/19 06:48:05;;;;;;;56.05;18.95;;;;;;;-8.84;100.00;100772.63;2225790;79;20388;-57
2022/12/19 06:51:05;;;;;;;62.05;21.02;;;;;;;-8.84;100.00;100775.17;2226589;79;20982;-57
2022/12/19 06:54:06;;;;;;;57.53;19.60;;;;;;;-8.85;100.00;100767.47;2229784;79;20976;-57
2022/12/19 06:57:06;;;;;;;53.35;19.73;;;;;;;-8.86;100.00;100762.78;2233524;79;21001;-57
2022/12/19 07:00:07;;;;;;;66.57;19.42;;;;;;;-8.80;100.00;100757.98;2235689;79;20997;-57
2022/12/19 07:03:08;;;;;;;68.57;21.52;;;;;;;-8.81;100.00;100748.59;2236145;79;21062;-57
2022/12/19 07:06:08;;;;;;;70.87;23.42;;;;;;;-8.76;100.00;100750.97;2225380;79;21049;-57
2022/12/19 07:09:09;;;;;;;62.40;21.90;;;;;;;-8.75;100.00;100733.65;2225876;79;21056;-57
2022/12/19 07:12:09;;;;;;;65.22;20.32;;;;;;;-8.77;100.00;100736.91;2231818;79;20992;-57
2022/12/19 07:15:11;;;;;;;62.90;20.70;;;;;;;-8.78;100.00;100754.23;2220155;79;21458;-57
2022/12/19 07:18:11;;;;;;;58.80;19.07;;;;;;;-8.72;100.00;100749.05;2218781;79;21086;-57
2022/12/19 07:21:12;;;;;;;63.20;21.23;;;;;;;-8.62;100.00;100743.11;2226811;79;20976;-57
2022/12/19 07:24:13;;;;;;;57.13;19.90;;;;;;;-8.61;100.00;100743.59;2246754;79;20973;-57
2022/12/19 07:27:14;;;;;;;58.92;19.50;;;;;;;-8.55;100.00;100737.51;2228564;79;21003;-57
2022/12/19 07:30:14;;;;;;;51.92;18.32;;;;;;;-8.43;100.00;100723.16;2231422;79;21519;-57
2022/12/19 07:33:15;;;;;;;51.13;18.87;;;;;;;-8.48;100.00;100720.45;2232266;79;21083;-57
2022/12/19 07:36:15;;;;;;;55.40;18.23;;;;;;;-8.46;100.00;100723.95;2225248;79;21491;-57
2022/12/19 07:39:16;;;;;;;57.70;19.17;;;;;;;-8.42;100.00;100718.18;2227981;79;20965;-57
2022/12/19 07:42:16;;;;;;;52.80;18.37;;;;;;;-8.31;100.00;100712.70;2223562;79;20956;-57
2022/12/19 07:45:17;;;;;;;49.35;16.37;;;;;;;-8.36;100.00;100712.08;2221110;79;20953;-58
2022/12/19 07:48:17;;;;;;;53.45;19.00;;;;;;;-8.37;100.00;100702.69;2235714;79;20961;-57
2022/12/19 07:51:18;;;;;;;47.35;16.65;;;;;;;-8.32;100.00;100702.03;2219790;79;21464;-57
2022/12/19 07:54:18;;;;;;;54.70;18.87;;;;;;;-8.36;100.00;100706.99;2215129;79;21586;-57
2022/12/19 07:57:18;;;;;;;50.73;17.80;;;;;;;-8.31;100.00;100697.42;2225844;79;21096;-57
2022/12/19 08:00:20;;;;;;;49.53;17.05;;;;;;;-8.21;100.00;100700.84;2228615;79;21078;-57
2022/12/19 08:03:20;;;;;;;50.23;16.70;;;;;;;-8.08;100.00;100700.58;2225959;79;21052;-57
2022/12/19 08:06:22;;;;;;;48.80;16.82;;;;;;;-7.95;100.00;100705.81;2226924;79;21534;-58
2022/12/19 08:09:26;;;;;;;48.13;16.12;;;;;;;-7.82;100.00;100702.13;2231540;79;21186;-57
2022/12/19 08:12:25;;;;;;;51.23;17.32;;;;;;;-7.67;100.00;100705.34;2215556;79;21005;-57
2022/12/19 08:15:26;;;;;;;54.03;18.70;;;;;;;-7.50;100.00;100714.09;2231409;79;21474;-58
2022/12/19 08:18:26;;;;;;;52.98;19.40;;;;;;;-7.26;100.00;100723.17;2233620;79;20981;-58
2022/12/19 08:21:27;;;;;;;51.35;18.42;;;;;;;-7.01;100.00;100733.98;2240240;79;20988;-58
2022/12/19 08:24:29;;;;;;;52.85;19.62;;;;;;;-6.81;100.00;100729.69;2213552;79;21031;-57
2022/12/19 08:27:30;;;;;;;53.02;18.95;;;;;;;-6.54;100.00;100728.14;2241271;79;21008;-57
2022/12/19 08:30:30;;;;;;;53.00;19.32;;;;;;;-6.37;100.00;100732.63;2238548;79;21107;-58
2022/12/19 08:33:31;;;;;;;54.67;19.57;;;;;;;-6.14;100.00;100738.59;2229045;79;21098;-57
2022/12/19 08:36:32;;;;;;;56.08;19.55;;;;;;;-5.95;100.00;100733.33;2229719;79;21052;-57
2022/12/19 08:39:33;;;;;;;54.80;19.30;;;;;;;-5.77;100.00;100723.30;2225763;79;20993;-57
2022/12/19 08:42:33;;;;;;;60.55;21.90;;;;;;;-5.57;100.00;100716.33;2229103;79;21568;-57
2022/12/19 08:45:34;;;;;;;61.98;22.05;;;;;;;-5.42;100.00;100705.73;2233761;79;21025;-57
2022/12/19 08:48:34;;;;;;;55.83;20.43;;;;;;;-5.52;100.00;100711.36;2225346;79;21488;-57
2022/12/19 08:51:35;;;;;;;56.63;20.72;;;;;;;-5.53;100.00;100699.00;2228894;79;21017;-58
2022/12/19 08:54:35;;;;;;;55.90;20.48;;;;;;;-5.48;100.00;100675.70;2215393;79;21111;-58
2022/12/19 08:57:36;;;;;;;53.38;21.50;;;;;;;-5.57;100.00;100694.59;2229576;79;21044;-57
2022/12/19 09:00:36;;;;;;;55.63;22.45;;;;;;;-5.61;100.00;100699.98;2230345;79;21028;-58
2022/12/19 09:03:37;;;;;;;57.05;23.87;;;;;;;-5.49;100.00;100698.25;2239696;79;20985;-57
2022/12/19 09:06:37;;;;;;;58.73;22.35;;;;;;;-5.33;100.00;100688.16;2232529;79;21529;-57
2022/12/19 09:09:37;;;;;;;67.78;25.62;;;;;;;-5.24;100.00;100690.15;2240492;79;20973;-58
2022/12/19 09:12:38;;;;;;;67.12;26.70;;;;;;;-5.02;100.00;100680.61;2230452;79;20994;-57
2022/12/19 09:15:39;;;;;;;67.03;26.50;;;;;;;-4.87;100.00;100687.46;2221969;79;21078;-57
2022/12/19 09:18:40;;;;;;;63.40;24.63;;;;;;;-4.68;100.00;100682.52;2232291;79;21057;-57
2022/12/19 09:21:40;;;;;;;62.38;23.45;;;;;;;-4.57;100.00;100677.32;2221168;79;20954;-57
2022/12/19 09:24:41;;;;;;;65.17;23.55;;;;;;;-4.39;100.00;100673.56;2237912;79;21026;-57
2022/12/19 09:27:41;;;;;;;63.38;25.20;;;;;;;-4.20;100.00;100678.38;2234293;79;21587;-58
2022/12/19 09:30:42;;;;;;;64.67;24.90;;;;;;;-3.95;100.00;100670.11;2231133;79;20985;-58
2022/12/19 09:33:43;;;;;;;65.20;25.88;;;;;;;-3.69;100.00;100663.11;2234106;79;21076;-57
2022/12/19 09:36:43;;;;;;;70.52;26.80;;;;;;;-3.46;100.00;100660.28;2232049;79;20984;-57
2022/12/19 09:39:44;;;;;;;71.82;28.57;;;;;;;-3.39;100.00;100652.30;2239822;79;21490;-58
2022/12/19 09:42:45;;;;;;;60.40;23.90;;;;;;;-3.42;100.00;100644.53;2215451;79;21501;-57
2022/12/19 09:45:45;;;;;;;66.85;25.62;;;;;;;-3.29;100.00;100638.86;2226424;79;20976;-57
2022/12/19 09:48:46;;;;;;;64.22;25.62;;;;;;;-3.21;100.00;100632.64;2228574;79;20968;-57
2022/12/19 09:51:46;;;;;;;62.90;25.30;;;;;;;-3.01;100.00;100626.69;2220868;79;21048;-57
2022/12/19 09:54:47;;;;;;;71.07;26.20;;;;;;;-3.06;100.00;100621.45;2233056;79;21035;-57
2022/12/19 09:57:47;;;;;;;66.05;25.55;;;;;;;-2.96;100.00;100618.27;2227481;79;21511;-57
2022/12/19 10:00:48;;;;;;;60.52;24.57;;;;;;;-2.98;100.00;100615.20;2238245;79;21017;-57
2022/12/19 10:03:48;;;;;;;62.78;26.55;;;;;;;-2.88;100.00;100622.28;2207373;79;21467;-57
2022/12/19 10:06:49;;;;;;;65.50;27.50;;;;;;;-2.62;100.00;100620.27;2240038;79;20965;-58
2022/12/19 10:09:49;;;;;;;65.78;26.50;;;;;;;-2.58;100.00;100618.65;2216514;79;20957;-58
2022/12/19 10:12:51;;;;;;;62.67;27.37;;;;;;;-2.58;100.00;100594.67;2216742;79;20944;-58
2022/12/19 10:15:51;;;;;;;65.15;25.88;;;;;;;-2.30;100.00;100580.64;2230965;79;21582;-57
2022/12/19 10:18:52;;;;;;;68.60;27.67;;;;;;;-2.13;100.00;100568.12;2209480;79;20978;-57
2022/12/19 10:21:52;;;;;;;62.43;25.88;;;;;;;-2.10;100.00;100578.05;2227991;79;21058;-57
2022/12/19 10:24:53;;;;;;;64.82;25.10;;;;;;;-2.32;100.00;100574.19;2225386;79;21096;-57
2022/12/19 10:27:53;;;;;;;64.60;25.35;;;;;;;-2.67;100.00;100575.65;2222510;79;21000;-57
2022/12/19 10:30:54;;;;;;;65.75;25.55;;;;;;;-2.84;100.00;100585.98;2222789;79;21022;-57
2022/12/19 10:33:55;;;;;;;69.00;27.48;;;;;;;-2.94;100.00;100586.20;2224095;79;22824;-57
2022/12/19 10:36:55;;;;;;;64.80;27.15;;;;;;;-2.99;100.00;100582.25;2220797;79;21035;-57
2022/12/19 10:39:56;;;;;;;64.27;26.30;;;;;;;-3.16;100.00;100585.72;2230638;79;20953;-58
2022/12/19 10:42:56;;;;;;;59.23;25.15;;;;;;;-3.11;100.00;100577.25;2217841;79;20996;-58
2022/12/19 10:45:57;;;;;;;64.50;25.90;;;;;;;-3.06;100.00;100565.38;2216077;79;20981;-57
2022/12/19 10:48:57;;;;;;;62.90;24.52;;;;;;;-3.10;100.00;100564.45;2233278;79;20957;-57
2022/12/19 10:51:58;;;;;;;72.78;29.82;;;;;;;-3.14;100.00;100566.50;2229396;79;20940;-57
2022/12/19 10:54:58;;;;;;;72.35;28.87;;;;;;;-3.00;100.00;100559.11;2216991;79;21463;-57
2022/12/19 10:57:59;;;;;;;65.75;25.52;;;;;;;-3.09;100.00;100548.19;2223498;79;20940;-57
2022/12/19 11:01:00;;;;;;;64.37;24.82;;;;;;;-3.12;100.00;100542.14;2207810;79;20987;-57
2022/12/19 11:04:00;;;;;;;64.95;27.00;;;;;;;-3.16;100.00;100533.09;2224109;79;21016;-57
2022/12/19 11:07:01;;;;;;;63.68;26.40;;;;;;;-3.07;100.00;100540.12;2231100;79;21029;-57
2022/12/19 11:10:01;;;;;;;66.15;26.77;;;;;;;-2.75;100.00;100536.08;2229538;79;21566;-57
2022/12/19 11:13:02;;;;;;;69.65;27.73;;;;;;;-2.36;100.00;100529.98;2220426;79;21582;-57
2022/12/19 11:16:02;;;;;;;65.40;27.35;;;;;;;-2.09;100.00;100528.77;2237860;79;21035;-57
2022/12/19 11:19:03;;;;;;;67.42;29.80;;;;;;;-1.99;100.00;100521.66;2240454;79;21022;-58
2022/12/19 11:22:03;;;;;;;68.00;29.12;;;;;;;-1.86;100.00;100516.30;2232927;79;20989;-57
2022/12/19 11:25:04;;;;;;;67.80;27.02;;;;;;;-1.90;100.00;100514.52;2218194;79;21040;-57
2022/12/19 11:28:04;;;;;;;67.22;27.35;;;;;;;-2.02;100.00;100514.33;2215902;79;21530;-57
2022/12/19 11:31:05;;;;;;;70.00;28.92;;;;;;;-2.16;100.00;100499.93;2233290;79;21008;-57
2022/12/19 11:34:06;;;;;;;63.42;26.37;;;;;;;-2.10;100.00;100494.48;2220088;79;21048;-57
2022/12/19 11:37:06;;;;;;;63.85;26.97;;;;;;;-1.81;100.00;100481.23;2229104;79;21016;-57
2022/12/19 11:40:06;;;;;;;64.35;27.20;;;;;;;-1.78;100.00;100474.85;2240958;79;21028;-57
2022/12/19 11:43:07;;;;;;;68.10;27.73;;;;;;;-1.57;100.00;100480.75;2234062;79;21029;-57
2022/12/19 11:46:08;;;;;;;64.95;26.35;;;;;;;-1.48;100.00;100477.45;2229512;79;21456;-58
2022/12/19 11:49:08;;;;;;;72.90;31.12;;;;;;;-1.62;100.00;100470.80;2233146;79;21498;-57
2022/12/19 11:52:09;;;;;;;80.45;31.90;;;;;;;-1.62;100.00;100469.52;2216597;79;21017;-58
2022/12/19 11:55:09;;;;;;;80.75;32.20;;;;;;;-1.54;100.00;100452.03;2213029;79;20954;-57
2022/12/19 11:58:10;;;;;;;77.10;31.02;;;;;;;-1.47;100.00;100445.70;2241738;79;21003;-57
2022/12/19 12:01:11;;;;;;;70.42;29.10;;;;;;;-1.60;100.00;100457.95;2214676;79;20991;-57
2022/12/19 12:04:11;;;;;;;73.25;28.67;;;;;;;-1.60;100.00;100451.52;2220596;79;20984;-57
2022/12/19 12:07:12;;;;;;;69.32;28.65;;;;;;;-1.50;100.00;100452.09;2243289;79;21052;-57
2022/12/19 12:10:13;;;;;;;68.90;29.67;;;;;;;-1.40;100.00;100445.37;2234092;79;21478;-57
2022/12/19 12:13:13;;;;;;;67.90;28.92;;;;;;;-1.39;100.00;100448.39;2226899;79;21091;-57
2022/12/19 12:16:14;;;;;;;66.90;28.25;;;;;;;-1.35;100.00;100442.84;2234555;79;21035;-57
2022/12/19 12:19:14;;;;;;;69.82;29.40;;;;;;;-1.46;100.00;100428.13;2231195;79;21082;-57
2022/12/19 12:22:15;;;;;;;68.62;28.20;;;;;;;-1.54;100.00;100423.29;2221279;79;20988;-57
2022/12/19 12:25:16;;;;;;;71.50;30.75;;;;;;;-1.58;100.00;100428.83;2211562;79;21039;-57
2022/12/19 12:28:17;;;;;;;72.50;29.92;;;;;;;-1.69;100.00;100425.23;2213783;79;20957;-57
2022/12/19 12:31:17;;;;;;;72.32;30.97;;;;;;;-1.61;100.00;100415.92;2234189;79;21435;-57
2022/12/19 12:34:17;;;;;;;72.90;30.72;;;;;;;-1.64;100.00;100419.75;2234374;79;20977;-58
2022/12/19 12:37:18;;;;;;;68.80;28.95;;;;;;;-1.54;100.00;100422.00;2217336;79;20992;-58
2022/12/19 12:40:20;;;;;;;68.05;29.15;;;;;;;-1.62;100.00;100422.34;2221482;79;21000;-57
2022/12/19 12:43:20;;;;;;;71.40;30.77;;;;;;;-1.78;100.00;100411.82;2222163;79;20996;-57
2022/12/19 12:46:21;;;;;;;74.75;29.52;;;;;;;-1.89;100.00;100413.80;2220831;79;20993;-57
2022/12/19 12:49:21;;;;;;;77.00;30.77;;;;;;;-1.82;100.00;100410.48;2236432;79;21483;-58
2022/12/19 12:52:22;;;;;;;76.45;31.82;;;;;;;-1.93;100.00;100398.72;2215660;79;21526;-58
2022/12/19 12:55:23;;;;;;;72.87;30.12;;;;;;;-1.95;100.00;100405.13;2222284;79;21588;-57
2022/12/19 12:58:24;;;;;;;73.50;30.27;;;;;;;-2.06;100.00;100392.53;2239298;79;21036;-57
2022/12/19 13:01:24;;;;;;;74.32;31.52;;;;;;;-2.30;100.00;100388.74;2238428;79;21044;-57
2022/12/19 13:04:26;;;;;;;70.67;29.35;;;;;;;-2.40;100.00;100382.13;2215119;79;21478;-57
2022/12/19 13:07:26;;;;;;;73.87;30.60;;;;;;;-2.44;100.00;100382.08;2229508;78;21054;-57
2022/12/19 13:10:27;;;;;;;69.87;29.05;;;;;;;-2.27;100.00;100383.64;2238357;79;21023;-58
2022/12/19 13:13:27;;;;;;;73.10;29.75;;;;;;;-2.39;100.00;100375.72;2221365;79;21004;-57
2022/12/19 13:16:28;;;;;;;71.95;29.23;;;;;;;-2.77;100.00;100378.91;2227498;79;20937;-57
2022/12/19 13:19:29;;;;;;;75.87;29.35;;;;;;;-2.72;100.00;100383.30;2226673;79;21440;-58
2022/12/19 13:22:30;;;;;;;69.95;28.32;;;;;;;-2.77;100.00;100373.38;2231340;79;21529;-57
2022/12/19 13:25:31;;;;;;;72.87;29.57;;;;;;;-2.89;100.00;100380.41;2225232;79;20976;-58
2022/12/19 13:28:31;;;;;;;71.65;28.62;;;;;;;-2.94;100.00;100378.59;2213664;79;21072;-57
2022/12/19 13:31:32;;;;;;;74.95;28.05;;;;;;;-3.03;100.00;100380.18;2216427;79;20997;-57
2022/12/19 13:34:32;;;;;;;75.03;29.77;;;;;;;-3.14;100.00;100373.54;2226629;79;21479;-57
2022/12/19 13:37:33;;;;;;;77.00;30.80;;;;;;;-3.33;100.00;100374.88;2223284;79;21041;-57
2022/12/19 13:40:33;;;;;;;73.97;29.42;;;;;;;-3.61;100.00;100368.73;2232573;79;21485;-58